Time;durP1;ratioP1;P1;durP2;ratioP2;P2;SDS_P1;SDS_P2;PMS_P1;PMS_P2;Temp;Humidity;BMP_temperature;BMP_pressure;BME280_temperature;BME280_humidity;BME280_pressure;Samples;Min_cycle;Max_cycle;Signal;HPM_P1;HPM_P2
2022/09/16 00:02:24;;;;;;;;;;;;;;;;;;5077511;28;19917;-90
2022/09/16 00:04:49;;;;;;;;;;;;;;;;;;5077079;28;20333;-89
2022/09/16 00:07:15;;;;;;;;;;;;;;;;;;5077430;28;20234;-89
2022/09/16 00:09:40;;;;;;;;;;;;;;;;;;5077414;28;20541;-90
2022/09/16 00:12:06;;;;;;;;;;;;;;;;;;5077203;28;20312;-89
2022/09/16 00:14:31;;;;;;;;;;;;;;;;;;5043479;28;19916;-90
2022/09/16 00:16:56;;;;;;;;;;;;;;;;;;5059802;28;19916;-88
2022/09/16 00:19:22;;;;;;;;;;;;;;;;;;5072800;28;20422;-92
2022/09/16 00:22:03;;;;;;;;;;;;;;;;;;5079851;28;19973;-91
2022/09/16 00:24:28;;;;;;;;;;;;;;;;;;5097408;28;19942;-88
2022/09/16 00:26:54;;;;;;;;;;;;;;;;;;5080079;28;20291;-92
2022/09/16 00:29:19;;;;;;;;;;;;;;;;;;5080047;28;19916;-91
2022/09/16 00:31:44;;;;;;;;;;;;;;;;;;5079305;28;19916;-91
2022/09/16 00:34:13;;;;;;;;;;;;;;;;;;5080612;28;19927;-90
2022/09/16 00:36:38;;;;;;;;;;;;;;;;;;5064369;28;20022;-91
2022/09/16 00:39:03;;;;;;;;;;;;;;;;;;5097351;28;20412;-91
2022/09/16 00:41:31;;;;;;;;;;;;;;;;;;5070254;28;19927;-90
2022/09/16 00:44:04;;;;;;;;;;;;;;;;;;5072930;28;19916;-90
2022/09/16 00:46:45;;;;;;;;;;;;;;;;;;5092437;28;19948;-89
2022/09/16 00:49:20;;;;;;;;;;;;;;;;;;5090073;28;19920;-90
2022/09/16 00:51:46;;;;;;;;;;;;;;;;;;5086599;28;19916;-90
2022/09/16 00:54:12;;;;;;;;;;;;;;;;;;5064474;28;19923;-90
2022/09/16 00:56:37;;;;;;;;;;;;;;;;;;5084135;28;19916;-91
2022/09/16 00:59:05;;;;;;;;;;;;;;;;;;5085974;28;19934;-90
2022/09/16 01:01:30;;;;;;;;;;;;;;;;;;5068704;28;19917;-91
2022/09/16 01:03:58;;;;;;;;;;;;;;;;;;5079114;28;19916;-92
2022/09/16 01:06:23;;;;;;;;;;;;;;;;;;5078817;28;19973;-91
2022/09/16 01:08:49;;;;;;;;;;;;;;;;;;5079556;28;19916;-91
2022/09/16 01:11:14;;;;;;;;;;;;;;;;;;5062656;28;19916;-89
2022/09/16 01:13:39;;;;;;;;;;;;;;;;;;5079212;28;19963;-90
2022/09/16 01:16:12;;;;;;;;;;;;;;;;;;5078605;28;20344;-91
2022/09/16 01:18:37;;;;;;;;;;;;;;;;;;5062181;28;19928;-92
2022/09/16 01:21:05;;;;;;;;;;;;;;;;;;5096706;28;19916;-90
2022/09/16 01:23:37;;;;;;;;;;;;;;;;;;5078471;28;19916;-92
2022/09/16 01:26:20;;;;;;;;;;;;;;;;;;5078867;28;19989;-93
2022/09/16 01:28:49;;;;;;;;;;;;;;;;;;5078863;28;19916;-92
2022/09/16 01:31:17;;;;;;;;;;;;;;;;;;5096178;28;20011;-91
2022/09/16 01:34:03;;;;;;;;;;;;;;;;;;5078084;28;19919;-90
2022/09/16 01:36:55;;;;;;;;;;;;;;;;;;5061348;28;19943;-90
2022/09/16 01:39:20;;;;;;;;;;;;;;;;;;5078201;28;19922;-89
2022/09/16 01:41:52;;;;;;;;;;;;;;;;;;5078111;28;20003;-90
2022/09/16 01:44:20;;;;;;;;;;;;;;;;;;5095901;28;20354;-91
2022/09/16 01:46:58;;;;;;;;;;;;;;;;;;5096188;28;19920;-93
2022/09/16 01:49:41;;;;;;;;;;;;;;;;;;5096355;28;19916;-91
2022/09/16 01:52:16;;;;;;;;;;;;;;;;;;5094930;28;19916;-92
2022/09/16 01:54:52;;;;;;;;;;;;;;;;;;5077963;28;20002;-93
2022/09/16 01:57:36;;;;;;;;;;;;;;;;;;5077715;28;19981;-91
2022/09/16 02:00:12;;;;;;;;;;;;;;;;;;5095219;28;19919;-91
2022/09/16 02:02:43;;;;;;;;;;;;;;;;;;5061216;28;19966;-90
2022/09/16 02:05:13;;;;;;;;;;;;;;;;;;5077416;28;19923;-92
2022/09/16 02:07:43;;;;;;;;;;;;;;;;;;5060504;28;19922;-91
2022/09/16 02:10:37;;;;;;;;;;;;;;;;;;5060567;28;20022;-88
2022/09/16 02:13:23;;;;;;;;;;;;;;;;;;5063796;28;19922;-90
2022/09/16 02:15:49;;;;;;;;;;;;;;;;;;5066564;28;19923;-92
2022/09/16 02:18:14;;;;;;;;;;;;;;;;;;5076850;28;20258;-91
2022/09/16 02:20:41;;;;;;;;;;;;;;;;;;5076921;28;19916;-91
2022/09/16 02:23:14;;;;;;;;;;;;;;;;;;5076869;28;19915;-91
2022/09/16 02:25:40;;;;;;;;;;;;;;;;;;5076929;28;19916;-91
2022/09/16 02:28:12;;;;;;;;;;;;;;;;;;5094579;28;19916;-91
2022/09/16 02:30:38;;;;;;;;;;;;;;;;;;5077675;28;19916;-91
2022/09/16 02:33:05;;;;;;;;;;;;;;;;;;5076632;28;19931;-91
2022/09/16 02:35:30;;;;;;;;;;;;;;;;;;5076705;28;20295;-92
2022/09/16 02:37:57;;;;;;;;;;;;;;;;;;5076961;28;19998;-89
2022/09/16 02:40:25;;;;;;;;;;;;;;;;;;5076751;28;20250;-92
2022/09/16 02:42:50;;;;;;;;;;;;;;;;;;5094849;28;19923;-92
2022/09/16 02:45:16;;;;;;;;;;;;;;;;;;5060362;28;19916;-90
2022/09/16 02:47:58;;;;;;;;;;;;;;;;;;5094425;28;19916;-90
2022/09/16 02:50:34;;;;;;;;;;;;;;;;;;5077011;28;19916;-89
2022/09/16 02:53:12;;;;;;;;;;;;;;;;;;5060227;28;19923;-89
2022/09/16 02:55:47;;;;;;;;;;;;;;;;;;5076932;28;19916;-89
2022/09/16 02:58:24;;;;;;;;;;;;;;;;;;5076594;28;19924;-89
2022/09/16 03:00:57;;;;;;;;;;;;;;;;;;5077772;28;19916;-89
2022/09/16 03:03:22;;;;;;;;;;;;;;;;;;5097294;28;19916;-90
2022/09/16 03:06:06;;;;;;;;;;;;;;;;;;5071912;28;19930;-87
2022/09/16 03:08:41;;;;;;;;;;;;;;;;;;5089634;28;19916;-88
2022/09/16 03:11:15;;;;;;;;;;;;;;;;;;5084228;28;19993;-89
2022/09/16 03:13:53;;;;;;;;;;;;;;;;;;5083491;28;19916;-89
2022/09/16 03:16:23;;;;;;;;;;;;;;;;;;5083563;28;19952;-91
2022/09/16 03:18:57;;;;;;;;;;;;;;;;;;5101247;28;20018;-91
2022/09/16 03:21:30;;;;;;;;;;;;;;;;;;5066649;28;19916;-93
2022/09/16 03:24:02;;;;;;;;;;;;;;;;;;5066836;28;20265;-94
2022/09/16 03:26:47;;;;;;;;;;;;;;;;;;5082812;28;20245;-91
2022/09/16 03:29:16;;;;;;;;;;;;;;;;;;5100363;28;20318;-91
2022/09/16 03:31:42;;;;;;;;;;;;;;;;;;5100761;28;20015;-89
2022/09/16 03:34:19;;;;;;;;;;;;;;;;;;5100816;28;19959;-91
2022/09/16 03:36:45;;;;;;;;;;;;;;;;;;5066219;28;19916;-89
2022/09/16 03:39:10;;;;;;;;;;;;;;;;;;5064674;28;20261;-89
2022/09/16 03:41:36;;;;;;;;;;;;;;;;;;5082428;28;19916;-89
2022/09/16 03:44:01;;;;;;;;;;;;;;;;;;5101080;28;20322;-89
2022/09/16 03:46:27;;;;;;;;;;;;;;;;;;5083019;28;20002;-90
2022/09/16 03:48:53;;;;;;;;;;;;;;;;;;5100867;28;19965;-88
2022/09/16 03:51:19;;;;;;;;;;;;;;;;;;5100987;28;19916;-89
2022/09/16 03:53:44;;;;;;;;;;;;;;;;;;5066582;28;19927;-90
2022/09/16 03:56:10;;;;;;;;;;;;;;;;;;5101370;28;19916;-88
2022/09/16 03:58:35;;;;;;;;;;;;;;;;;;5066479;28;20306;-90
2022/09/16 04:01:00;;;;;;;;;;;;;;;;;;5101269;28;19916;-90
2022/09/16 04:03:32;;;;;;;;;;;;;;;;;;5101952;28;19916;-82
2022/09/16 04:05:57;;;;;;;;;;;;;;;;;;5083109;28;20019;-80
2022/09/16 04:08:22;;;;;;;;;;;;;;;;;;5082820;28;20010;-82
2022/09/16 04:10:58;;;;;;;;;;;;;;;;;;5100690;28;19916;-86
2022/09/16 04:13:23;;;;;;;;;;;;;;;;;;5083038;28;19916;-85
2022/09/16 04:16:01;;;;;;;;;;;;;;;;;;5097575;28;19923;-83
2022/09/16 04:18:26;;;;;;;;;;;;;;;;;;5080741;28;20307;-83
2022/09/16 04:20:55;;;;;;;;;;;;;;;;;;5079539;28;20014;-82
2022/09/16 04:23:22;;;;;;;;;;;;;;;;;;5097281;28;19913;-83
2022/09/16 04:26:03;;;;;;;;;;;;;;;;;;5078937;28;19916;-82
2022/09/16 04:28:29;;;;;;;;;;;;;;;;;;5097614;28;19920;-85
2022/09/16 04:31:01;;;;;;;;;;;;;;;;;;5096676;28;19920;-83
2022/09/16 04:33:30;;;;;;;;;;;;;;;;;;5115770;28;19953;-83
2022/09/16 04:36:11;;;;;;;;;;;;;;;;;;5116092;28;19920;-84
2022/09/16 04:38:55;;;;;;;;;;;;;;;;;;5080815;28;20243;-84
2022/09/16 04:41:21;;;;;;;;;;;;;;;;;;5098755;28;20230;-85
2022/09/16 04:43:56;;;;;;;;;;;;;;;;;;5096462;28;19928;-85
2022/09/16 04:46:22;;;;;;;;;;;;;;;;;;5116079;28;20024;-83
2022/09/16 04:48:48;;;;;;;;;;;;;;;;;;5100323;28;20295;-85
2022/09/16 04:51:13;;;;;;;;;;;;;;;;;;5100316;28;19931;-84
2022/09/16 04:53:45;;;;;;;;;;;;;;;;;;5079246;28;19926;-81
2022/09/16 04:56:14;;;;;;;;;;;;;;;;;;5115403;28;20003;-81
2022/09/16 04:58:48;;;;;;;;;;;;;;;;;;5115985;28;19931;-83
2022/09/16 05:01:16;;;;;;;;;;;;;;;;;;5094816;28;20003;-81
2022/09/16 05:03:42;;;;;;;;;;;;;;;;;;5076974;28;19977;-84
2022/09/16 05:06:13;;;;;;;;;;;;;;;;;;5108404;27;19926;-85
2022/09/16 05:08:39;;;;;;;;;;;;;;;;;;5127261;28;19926;-81
2022/09/16 05:11:25;;;;;;;;;;;;;;;;;;5108633;28;19920;-81
2022/09/16 05:13:53;;;;;;;;;;;;;;;;;;5111864;28;19920;-82
2022/09/16 05:16:19;;;;;;;;;;;;;;;;;;5104139;28;19920;-81
2022/09/16 05:18:45;;;;;;;;;;;;;;;;;;5098109;28;19927;-81
2022/09/16 05:21:12;;;;;;;;;;;;;;;;;;5114955;28;19938;-82
2022/09/16 05:23:39;;;;;;;;;;;;;;;;;;5104381;28;19916;-83
2022/09/16 05:26:12;;;;;;;;;;;;;;;;;;5094513;28;19924;-84
2022/09/16 05:28:37;;;;;;;;;;;;;;;;;;5096695;28;20004;-84
2022/09/16 05:31:07;;;;;;;;;;;;;;;;;;5097925;28;19943;-84
2022/09/16 05:33:36;;;;;;;;;;;;;;;;;;5118859;28;20007;-83
2022/09/16 05:36:05;;;;;;;;;;;;;;;;;;5084484;28;20341;-82
2022/09/16 05:38:31;;;;;;;;;;;;;;;;;;5086955;28;19917;-82
2022/09/16 05:41:00;;;;;;;;;;;;;;;;;;5100840;28;19916;-84
2022/09/16 05:43:58;;;;;;;;;;;;;;;;;;5130332;28;19919;-83
2022/09/16 05:46:24;;;;;;;;;;;;;;;;;;5059695;28;19923;-81
2022/09/16 05:48:49;;;;;;;;;;;;;;;;;;5100552;28;19919;-82
2022/09/16 05:51:38;;;;;;;;;;;;;;;;;;5111549;28;19927;-83
2022/09/16 05:54:05;;;;;;;;;;;;;;;;;;5124259;27;19926;-82
2022/09/16 05:56:30;;;;;;;;;;;;;;;;;;5117302;28;19899;-81
2022/09/16 05:59:08;;;;;;;;;;;;;;;;;;;;;
2022/09/16 06:01:34;;;;;;;;;;;;;;;;;;5104775;28;20006;-83
2022/09/16 06:04:09;;;;;;;;;;;;;;;;;;5107658;28;19973;-83
2022/09/16 06:06:38;;;;;;;;;;;;;;;;;;5106715;28;20289;-84
2022/09/16 06:12:07;;;;;;;;;;;;;;;;;;5335964;22;20998;-82
2022/09/16 06:14:32;;;;;;;;;;;;;;;;;;5119944;28;19959;-85
2022/09/16 06:17:00;;;;;;;;;;;;;;;;;;5128745;28;19920;-79
2022/09/16 06:19:26;;;;;;;;;;;;;;;;;;5128938;28;19922;-84
2022/09/16 06:21:51;;;;;;;;;;;;;;;;;;5103175;28;19912;-81
2022/09/16 06:29:46;;;;;;;;;;;;;;;;;;5315985;22;19924;-84
2022/09/16 06:32:11;;;;;;;;;;;;;;;;;;5084239;28;19934;-85
2022/09/16 06:34:37;;;;;;;;;;;;;;;;;;5067215;28;19920;-81
2022/09/16 06:37:02;;;;;;;;;;;;;;;;;;5091161;28;20395;-81
2022/09/16 06:39:28;;;;;;;;;;;;;;;;;;5085002;28;19920;-80
2022/09/16 06:41:56;;;;;;;;;;;;;;;;;;5095860;28;19920;-80
2022/09/16 06:44:22;;;;;;;;;;;;;;;;;;5092246;28;20056;-81
2022/09/16 06:46:47;;;;;;;;;;;;;;;;;;5084218;28;20504;-84
2022/09/16 06:49:25;;;;;;;;;;;;;;;;;;5095037;28;19916;-86
2022/09/16 06:51:51;;;;;;;;;;;;;;;;;;5071648;28;19947;-81
2022/09/16 06:54:16;;;;;;;;;;;;;;;;;;5068124;28;19943;-81
2022/09/16 06:56:41;;;;;;;;;;;;;;;;;;5086704;28;20422;-84
2022/09/16 06:59:07;;;;;;;;;;;;;;;;;;5093312;28;19920;-83
2022/09/16 07:01:33;;;;;;;;;;;;;;;;;;5081207;28;19920;-82
2022/09/16 07:04:00;;;;;;;;;;;;;;;;;;5079825;28;19920;-82
2022/09/16 07:06:29;;;;;;;;;;;;;;;;;;5073715;28;19920;-84
2022/09/16 07:08:55;;;;;;;;;;;;;;;;;;5088759;28;19954;-81
2022/09/16 07:11:21;;;;;;;;;;;;;;;;;;5057971;28;20351;-77
2022/09/16 07:13:47;;;;;;;;;;;;;;;;;;5086086;28;19921;-79
2022/09/16 07:16:15;;;;;;;;;;;;;;;;;;5085983;28;19935;-80
2022/09/16 07:18:41;;;;;;;;;;;;;;;;;;5073098;28;20249;-80
2022/09/16 07:21:06;;;;;;;;;;;;;;;;;;5090405;28;19935;-79
2022/09/16 07:23:34;;;;;;;;;;;;;;;;;;5081061;28;19921;-80
2022/09/16 07:26:07;;;;;;;;;;;;;;;;;;5078774;28;19924;-79
2022/09/16 07:28:32;;;;;;;;;;;;;;;;;;5078547;28;19920;-78
2022/09/16 07:31:01;;;;;;;;;;;;;;;;;;5071784;28;19963;-78
2022/09/16 07:33:27;;;;;;;;;;;;;;;;;;5085346;28;19931;-77
2022/09/16 07:38:40;;;;;;;;;;;;;;;;;;5073370;28;19935;-78
2022/09/16 07:41:15;;;;;;;;;;;;;;;;;;5069432;28;19916;-78
2022/09/16 07:43:40;;;;;;;;;;;;;;;;;;5085476;28;19926;-79
2022/09/16 07:46:06;;;;;;;;;;;;;;;;;;5083578;28;19916;-79
2022/09/16 07:48:32;;;;;;;;;;;;;;;;;;5086461;28;19916;-80
2022/09/16 07:51:02;;;;;;;;;;;;;;;;;;5067835;28;20332;-76
2022/09/16 07:53:28;;;;;;;;;;;;;;;;;;5067717;28;19921;-78
2022/09/16 07:55:54;;;;;;;;;;;;;;;;;;5066780;28;19920;-79
2022/09/16 07:58:19;;;;;;;;;;;;;;;;;;5089080;28;19916;-77
2022/09/16 08:00:46;;;;;;;;;;;;;;;;;;5070382;28;20479;-78
2022/09/16 08:03:11;;;;;;;;;;;;;;;;;;5079322;28;19920;-79
2022/09/16 08:05:37;;;;;;;;;;;;;;;;;;5097355;28;19942;-79
2022/09/16 08:08:03;;;;;;;;;;;;;;;;;;5093794;28;19980;-79
2022/09/16 08:10:38;;;;;;;;;;;;;;;;;;5069795;28;19928;-79
2022/09/16 08:13:04;;;;;;;;;;;;;;;;;;5073120;28;20018;-79
2022/09/16 08:15:30;;;;;;;;;;;;;;;;;;5061709;28;20012;-79
2022/09/16 08:17:55;;;;;;;;;;;;;;;;;;5072681;28;19920;-79
2022/09/16 08:20:21;;;;;;;;;;;;;;;;;;5094169;28;19967;-77
2022/09/16 08:22:46;;;;;;;;;;;;;;;;;;5079938;28;19921;-80
2022/09/16 08:25:12;;;;;;;;;;;;;;;;;;5061441;28;19928;-78
2022/09/16 08:27:37;;;;;;;;;;;;;;;;;;5076062;28;19917;-79
2022/09/16 08:30:03;;;;;;;;;;;;;;;;;;5086256;28;19920;-80
2022/09/16 08:32:28;;;;;;;;;;;;;;;;;;5077008;28;19968;-79
2022/09/16 08:34:53;;;;;;;;;;;;;;;;;;5081780;28;19920;-80
2022/09/16 08:40:17;;;;;;;;;;;;;;;;;;5074900;28;19966;-78
2022/09/16 08:43:01;;;;;;;;;;;;;;;;;;5069349;28;20219;-79
2022/09/16 08:45:45;;;;;;;;;;;;;;;;;;5081723;28;19945;-79
2022/09/16 08:48:49;;;;;;;;;;;;;;;;;;5090630;28;20014;-81
2022/09/16 08:51:15;;;;;;;;;;;;;;;;;;5010236;28;19924;-80
2022/09/16 08:53:40;;;;;;;;;;;;;;;;;;4992498;28;19917;-80
2022/09/16 08:56:06;;;;;;;;;;;;;;;;;;5041892;28;19917;-79
2022/09/16 08:58:42;;;;;;;;;;;;;;;;;;5076703;28;20344;-81
2022/09/16 09:01:25;;;;;;;;;;;;;;;;;;5073872;28;19987;-81
2022/09/16 09:03:56;;;;;;;;;;;;;;;;;;5094122;28;19934;-78
2022/09/16 09:06:39;;;;;;;;;;;;;;;;;;5092050;28;19939;-79
2022/09/16 09:09:20;;;;;;;;;;;;;;;;;;5091487;28;19939;-81
2022/09/16 09:11:49;;;;;;;;;;;;;;;;;;5054923;28;20357;-81
2022/09/16 09:14:33;;;;;;;;;;;;;;;;;;5073097;28;19916;-80
2022/09/16 09:17:07;;;;;;;;;;;;;;;;;;5092925;28;20240;-80
2022/09/16 09:19:55;;;;;;;;;;;;;;;;;;5074766;28;19939;-80
2022/09/16 09:22:24;;;;;;;;;;;;;;;;;;5076626;28;20309;-80
2022/09/16 09:25:08;;;;;;;;;;;;;;;;;;5095137;28;19949;-80
2022/09/16 09:27:33;;;;;;;;;;;;;;;;;;5095250;28;19977;-78
2022/09/16 09:30:08;;;;;;;;;;;;;;;;;;5094257;28;19955;-81
2022/09/16 09:33:03;;;;;;;;;;;;;;;;;;5060360;28;19916;-78
2022/09/16 09:35:39;;;;;;;;;;;;;;;;;;4990690;28;20576;-80
2022/09/16 09:38:24;;;;;;;;;;;;;;;;;;5061565;28;20404;-80
2022/09/16 09:41:02;;;;;;;;;;;;;;;;;;5044295;28;19951;-80
2022/09/16 09:43:34;;;;;;;;;;;;;;;;;;5061700;28;19920;-80
2022/09/16 09:46:22;;;;;;;;;;;;;;;;;;5078161;28;19919;-80
2022/09/16 09:48:49;;;;;;;;;;;;;;;;;;5095639;28;20317;-79
2022/09/16 09:51:30;;;;;;;;;;;;;;;;;;5077554;28;19920;-79
2022/09/16 09:53:56;;;;;;;;;;;;;;;;;;5095668;28;19973;-79
2022/09/16 09:56:36;;;;;;;;;;;;;;;;;;5077653;28;19948;-79
2022/09/16 09:59:03;;;;;;;;;;;;;;;;;;5095569;28;20335;-79
2022/09/16 10:01:29;;;;;;;;;;;;;;;;;;5077618;28;19962;-78
2022/09/16 10:03:56;;;;;;;;;;;;;;;;;;5095536;28;20303;-79
2022/09/16 10:06:24;;;;;;;;;;;;;;;;;;5077673;28;20210;-80
2022/09/16 10:08:50;;;;;;;;;;;;;;;;;;5060637;28;19923;-80
2022/09/16 10:11:22;;;;;;;;;;;;;;;;;;5095271;28;19916;-80
2022/09/16 10:13:51;;;;;;;;;;;;;;;;;;5076368;28;19916;-81
2022/09/16 10:16:19;;;;;;;;;;;;;;;;;;5077604;28;19922;-81
2022/09/16 10:18:44;;;;;;;;;;;;;;;;;;5095572;28;19916;-80
2022/09/16 10:21:10;;;;;;;;;;;;;;;;;;5077170;28;19923;-80
2022/09/16 10:23:37;;;;;;;;;;;;;;;;;;5077309;28;19957;-81
2022/09/16 10:26:06;;;;;;;;;;;;;;;;;;5077349;28;20001;-81
2022/09/16 10:28:32;;;;;;;;;;;;;;;;;;5094973;28;20257;-80
2022/09/16 10:30:57;;;;;;;;;;;;;;;;;;5077064;28;19916;-80
2022/09/16 10:33:52;;;;;;;;;;;;;;;;;;5077321;28;19916;-80
2022/09/16 10:36:21;;;;;;;;;;;;;;;;;;5073368;28;19923;-81
2022/09/16 10:38:52;;;;;;;;;;;;;;;;;;5076970;28;19946;-80
2022/09/16 10:41:24;;;;;;;;;;;;;;;;;;5076759;28;19916;-80
2022/09/16 10:43:50;;;;;;;;;;;;;;;;;;5094906;28;19916;-80
2022/09/16 10:46:16;;;;;;;;;;;;;;;;;;5076832;28;19948;-80
2022/09/16 10:48:41;;;;;;;;;;;;;;;;;;5060030;28;19956;-80
2022/09/16 10:51:15;;;;;;;;;;;;;;;;;;5060145;28;20237;-80
2022/09/16 10:53:43;;;;;;;;;;;;;;;;;;5076623;28;20023;-80
2022/09/16 10:56:15;;;;;;;;;;;;;;;;;;5076507;28;19964;-80
2022/09/16 10:58:41;;;;;;;;;;;;;;;;;;5076809;28;19939;-80
2022/09/16 11:01:12;;;;;;;;;;;;;;;;;;5060088;28;20314;-80
2022/09/16 11:03:44;;;;;;;;;;;;;;;;;;5094692;28;19952;-81
2022/09/16 11:06:10;;;;;;;;;;;;;;;;;;5094779;28;19967;-79
2022/09/16 11:08:38;;;;;;;;;;;;;;;;;;5076692;28;19957;-78
2022/09/16 11:11:09;;;;;;;;;;;;;;;;;;5094390;28;19916;-79
2022/09/16 11:13:53;;;;;;;;;;;;;;;;;;5076843;28;19916;-79
2022/09/16 11:16:18;;;;;;;;;;;;;;;;;;5094716;28;19924;-78
2022/09/16 11:19:03;;;;;;;;;;;;;;;;;;5094571;28;20245;-80
2022/09/16 11:21:37;;;;;;;;;;;;;;;;;;5095048;28;19974;-82
2022/09/16 11:24:35;;;;;;;;;;;;;;;;;;5095019;28;19920;-80
2022/09/16 11:27:09;;;;;;;;;;;;;;;;;;5043426;28;20018;-80
2022/09/16 11:29:37;;;;;;;;;;;;;;;;;;5098377;28;19920;-78
2022/09/16 11:32:08;;;;;;;;;;;;;;;;;;5081135;28;19916;-80
2022/09/16 11:34:53;;;;;;;;;;;;;;;;;;5081425;28;20246;-82
2022/09/16 11:37:26;;;;;;;;;;;;;;;;;;5099156;28;19912;-80
2022/09/16 11:39:56;;;;;;;;;;;;;;;;;;5080283;28;19916;-80
2022/09/16 11:42:25;;;;;;;;;;;;;;;;;;5080391;28;19912;-81
2022/09/16 11:44:50;;;;;;;;;;;;;;;;;;5063671;28;19960;-79
2022/09/16 11:47:15;;;;;;;;;;;;;;;;;;5098175;28;19950;-80
2022/09/16 11:49:47;;;;;;;;;;;;;;;;;;5098451;28;19916;-80
2022/09/16 11:52:28;;;;;;;;;;;;;;;;;;5063412;28;19916;-79
2022/09/16 11:55:12;;;;;;;;;;;;;;;;;;5097838;28;19916;-80
2022/09/16 11:57:37;;;;;;;;;;;;;;;;;;5079679;28;19942;-79
2022/09/16 12:00:05;;;;;;;;;;;;;;;;;;5063241;28;19942;-79
2022/09/16 12:02:39;;;;;;;;;;;;;;;;;;5080306;28;20417;-79
2022/09/16 12:05:14;;;;;;;;;;;;;;;;;;5079871;28;19973;-79
2022/09/16 12:07:44;;;;;;;;;;;;;;;;;;5097740;28;19967;-79
2022/09/16 12:10:22;;;;;;;;;;;;;;;;;;5079461;28;19927;-80
2022/09/16 12:12:52;;;;;;;;;;;;;;;;;;5079299;28;19973;-80
2022/09/16 12:15:18;;;;;;;;;;;;;;;;;;5079676;28;19916;-80
2022/09/16 12:17:46;;;;;;;;;;;;;;;;;;5097543;28;19916;-81
2022/09/16 12:20:26;;;;;;;;;;;;;;;;;;5079808;28;20011;-80
2022/09/16 12:22:53;;;;;;;;;;;;;;;;;;5079203;28;19959;-80
2022/09/16 12:25:26;;;;;;;;;;;;;;;;;;5079184;28;20001;-81
2022/09/16 12:27:55;;;;;;;;;;;;;;;;;;5062361;28;20339;-80
2022/09/16 12:30:34;;;;;;;;;;;;;;;;;;5079382;28;20002;-80
2022/09/16 12:33:01;;;;;;;;;;;;;;;;;;5079329;28;20253;-81
2022/09/16 12:35:35;;;;;;;;;;;;;;;;;;5062461;28;19916;-79
2022/09/16 12:38:01;;;;;;;;;;;;;;;;;;5078480;28;20345;-80
2022/09/16 12:40:27;;;;;;;;;;;;;;;;;;5078839;28;19916;-80
2022/09/16 12:42:56;;;;;;;;;;;;;;;;;;5097043;28;19949;-80
2022/09/16 12:45:39;;;;;;;;;;;;;;;;;;5097153;28;19916;-81
2022/09/16 12:48:17;;;;;;;;;;;;;;;;;;5078865;28;19973;-80
2022/09/16 12:51:01;;;;;;;;;;;;;;;;;;5096862;28;19923;-81
2022/09/16 12:53:26;;;;;;;;;;;;;;;;;;5096934;28;19916;-80
2022/09/16 12:56:07;;;;;;;;;;;;;;;;;;5096849;28;19923;-80
2022/09/16 12:58:32;;;;;;;;;;;;;;;;;;5096726;28;20011;-80
2022/09/16 13:01:01;;;;;;;;;;;;;;;;;;5096751;28;19952;-80
2022/09/16 13:03:27;;;;;;;;;;;;;;;;;;5064781;28;19917;-82
2022/09/16 13:05:52;;;;;;;;;;;;;;;;;;5081344;28;19937;-82
2022/09/16 13:08:20;;;;;;;;;;;;;;;;;;5061710;28;20396;-80
2022/09/16 13:10:45;;;;;;;;;;;;;;;;;;5078638;28;20016;-81
2022/09/16 13:13:18;;;;;;;;;;;;;;;;;;5062078;28;19974;-81
2022/09/16 13:15:44;;;;;;;;;;;;;;;;;;5061923;28;19924;-80
2022/09/16 13:18:20;;;;;;;;;;;;;;;;;;5078128;28;19931;-81
2022/09/16 13:20:58;;;;;;;;;;;;;;;;;;5078552;28;19916;-80
2022/09/16 13:23:25;;;;;;;;;;;;;;;;;;5078317;28;19916;-79
2022/09/16 13:25:58;;;;;;;;;;;;;;;;;;5078219;28;19998;-80
2022/09/16 13:28:37;;;;;;;;;;;;;;;;;;5096205;28;19950;-80
2022/09/16 13:31:11;;;;;;;;;;;;;;;;;;5061311;28;20288;-80
2022/09/16 13:33:43;;;;;;;;;;;;;;;;;;5077670;28;19938;-80
2022/09/16 13:36:15;;;;;;;;;;;;;;;;;;5077818;28;19977;-79
2022/09/16 13:38:51;;;;;;;;;;;;;;;;;;5078044;28;19916;-79
2022/09/16 13:41:34;;;;;;;;;;;;;;;;;;5078844;28;19951;-80
2022/09/16 13:44:00;;;;;;;;;;;;;;;;;;5096165;28;19916;-80
2022/09/16 13:46:30;;;;;;;;;;;;;;;;;;5077823;28;20247;-80
2022/09/16 13:48:55;;;;;;;;;;;;;;;;;;5060462;28;19916;-80
2022/09/16 13:51:21;;;;;;;;;;;;;;;;;;5077501;28;20250;-79
2022/09/16 13:53:50;;;;;;;;;;;;;;;;;;5077676;28;20075;-79
2022/09/16 13:56:15;;;;;;;;;;;;;;;;;;5077719;28;19973;-78
2022/09/16 13:59:00;;;;;;;;;;;;;;;;;;5077755;28;19916;-78
2022/09/16 14:01:38;;;;;;;;;;;;;;;;;;5095590;28;19947;-78
2022/09/16 14:04:16;;;;;;;;;;;;;;;;;;5060468;28;20018;-79
2022/09/16 14:06:57;;;;;;;;;;;;;;;;;;5095363;28;19916;-79
2022/09/16 14:09:28;;;;;;;;;;;;;;;;;;5060902;28;20295;-80
2022/09/16 14:11:57;;;;;;;;;;;;;;;;;;5095114;28;19916;-78
2022/09/16 14:14:22;;;;;;;;;;;;;;;;;;5095241;28;19916;-78
2022/09/16 14:16:48;;;;;;;;;;;;;;;;;;5077140;28;19938;-79
2022/09/16 14:19:13;;;;;;;;;;;;;;;;;;5076979;28;19970;-80
2022/09/16 14:21:38;;;;;;;;;;;;;;;;;;5095216;28;19923;-78
2022/09/16 14:24:22;;;;;;;;;;;;;;;;;;5095201;28;20061;-78
2022/09/16 14:26:51;;;;;;;;;;;;;;;;;;5095409;28;19916;-79
2022/09/16 14:29:16;;;;;;;;;;;;;;;;;;5077272;28;19920;-79
2022/09/16 14:31:44;;;;;;;;;;;;;;;;;;5094955;28;20269;-79
2022/09/16 14:34:10;;;;;;;;;;;;;;;;;;5094783;28;19920;-79
2022/09/16 14:36:39;;;;;;;;;;;;;;;;;;5060104;28;19924;-81
2022/09/16 14:39:07;;;;;;;;;;;;;;;;;;5076888;28;19916;-79
2022/09/16 14:41:45;;;;;;;;;;;;;;;;;;5095210;28;20336;-81
2022/09/16 14:44:19;;;;;;;;;;;;;;;;;;5095245;28;19923;-79
2022/09/16 14:46:45;;;;;;;;;;;;;;;;;;5095315;28;19916;-79
2022/09/16 14:49:11;;;;;;;;;;;;;;;;;;5094532;28;20013;-79
2022/09/16 14:51:36;;;;;;;;;;;;;;;;;;5094501;28;19951;-79
2022/09/16 14:54:02;;;;;;;;;;;;;;;;;;5076703;28;19916;-79
2022/09/16 14:56:27;;;;;;;;;;;;;;;;;;5094668;28;19923;-79
2022/09/16 14:58:53;;;;;;;;;;;;;;;;;;5076288;28;20320;-80
2022/09/16 15:01:20;;;;;;;;;;;;;;;;;;5076651;28;20344;-80
2022/09/16 15:03:50;;;;;;;;;;;;;;;;;;5094374;28;19916;-79
2022/09/16 15:06:17;;;;;;;;;;;;;;;;;;5076612;28;19947;-80
2022/09/16 15:08:43;;;;;;;;;;;;;;;;;;5077125;28;19920;-79
2022/09/16 15:11:13;;;;;;;;;;;;;;;;;;5076492;28;19951;-80
2022/09/16 15:13:38;;;;;;;;;;;;;;;;;;5059885;28;19916;-80
2022/09/16 15:16:04;;;;;;;;;;;;;;;;;;5094694;28;19916;-80
2022/09/16 15:18:36;;;;;;;;;;;;;;;;;;5095151;28;20003;-79
2022/09/16 15:21:07;;;;;;;;;;;;;;;;;;5094335;28;19924;-79
2022/09/16 15:23:32;;;;;;;;;;;;;;;;;;5076432;28;19916;-79
2022/09/16 15:26:08;;;;;;;;;;;;;;;;;;5094511;28;20014;-80
2022/09/16 15:28:34;;;;;;;;;;;;;;;;;;5076171;28;19920;-79
2022/09/16 15:30:59;;;;;;;;;;;;;;;;;;5094227;28;20234;-79
2022/09/16 15:33:32;;;;;;;;;;;;;;;;;;5094303;28;19939;-79
2022/09/16 15:35:57;;;;;;;;;;;;;;;;;;5094310;28;19916;-79
2022/09/16 15:38:23;;;;;;;;;;;;;;;;;;5094327;28;19939;-78
2022/09/16 15:41:09;;;;;;;;;;;;;;;;;;5076409;28;19916;-79
2022/09/16 15:43:37;;;;;;;;;;;;;;;;;;5094193;28;20326;-79
2022/09/16 15:46:03;;;;;;;;;;;;;;;;;;5076389;28;19923;-78
2022/09/16 15:48:30;;;;;;;;;;;;;;;;;;5094062;28;20317;-79
2022/09/16 15:50:57;;;;;;;;;;;;;;;;;;5076439;28;20314;-78
2022/09/16 15:53:28;;;;;;;;;;;;;;;;;;5094224;28;20264;-79
2022/09/16 15:55:53;;;;;;;;;;;;;;;;;;5094132;28;19920;-78
2022/09/16 15:58:24;;;;;;;;;;;;;;;;;;5076044;28;20238;-79
2022/09/16 16:00:52;;;;;;;;;;;;;;;;;;5075866;28;19988;-79
2022/09/16 16:03:19;;;;;;;;;;;;;;;;;;5094012;28;20352;-80
2022/09/16 16:05:49;;;;;;;;;;;;;;;;;;5075971;28;19922;-79
2022/09/16 16:08:35;;;;;;;;;;;;;;;;;;5076257;28;19958;-79
2022/09/16 16:11:07;;;;;;;;;;;;;;;;;;5094116;28;20396;-78
2022/09/16 16:13:33;;;;;;;;;;;;;;;;;;5079666;28;19923;-79
2022/09/16 16:15:59;;;;;;;;;;;;;;;;;;5079327;28;19916;-78
2022/09/16 16:18:24;;;;;;;;;;;;;;;;;;5079436;28;19916;-80
2022/09/16 16:20:50;;;;;;;;;;;;;;;;;;5079470;28;19917;-79
2022/09/16 16:23:15;;;;;;;;;;;;;;;;;;5079261;28;19973;-80
2022/09/16 16:25:40;;;;;;;;;;;;;;;;;;5097506;28;19920;-79
2022/09/16 16:28:06;;;;;;;;;;;;;;;;;;5079225;28;19974;-80
2022/09/16 16:30:31;;;;;;;;;;;;;;;;;;5079030;28;20342;-79
2022/09/16 16:32:57;;;;;;;;;;;;;;;;;;5097332;28;19916;-79
2022/09/16 16:35:22;;;;;;;;;;;;;;;;;;5062997;28;20411;-79
2022/09/16 16:37:47;;;;;;;;;;;;;;;;;;5097352;28;19916;-80
2022/09/16 16:40:13;;;;;;;;;;;;;;;;;;5097151;28;19916;-79
2022/09/16 16:42:39;;;;;;;;;;;;;;;;;;5097267;28;19924;-79
2022/09/16 16:45:04;;;;;;;;;;;;;;;;;;5097208;28;20241;-79
2022/09/16 16:47:30;;;;;;;;;;;;;;;;;;5097464;28;19916;-79
2022/09/16 16:49:56;;;;;;;;;;;;;;;;;;5097421;28;20222;-80
2022/09/16 16:52:21;;;;;;;;;;;;;;;;;;5097016;28;19916;-79
2022/09/16 16:54:47;;;;;;;;;;;;;;;;;;5097487;28;19943;-80
2022/09/16 16:57:12;;;;;;;;;;;;;;;;;;5096911;28;20295;-78
2022/09/16 16:59:37;;;;;;;;;;;;;;;;;;5097093;28;19973;-80
2022/09/16 17:02:03;;;;;;;;;;;;;;;;;;5062632;28;19965;-82
2022/09/16 17:04:28;;;;;;;;;;;;;;;;;;5096725;28;19916;-79
2022/09/16 17:06:54;;;;;;;;;;;;;;;;;;5078828;28;19924;-81
2022/09/16 17:09:19;;;;;;;;;;;;;;;;;;5097313;28;19941;-80
2022/09/16 17:11:54;;;;;;;;;;;;;;;;;;5078571;28;20242;-80
2022/09/16 17:14:20;;;;;;;;;;;;;;;;;;5061970;28;19916;-80
2022/09/16 17:16:47;;;;;;;;;;;;;;;;;;5078634;28;20013;-80
2022/09/16 17:19:12;;;;;;;;;;;;;;;;;;5078784;28;19965;-80
2022/09/16 17:21:39;;;;;;;;;;;;;;;;;;5078806;28;19943;-80